createdAt,value
2023-04-25T00:03:01.132Z,99268.79
2023-04-25T00:07:54.472Z,99275.76
2023-04-25T00:12:47.204Z,99279.79
2023-04-25T00:17:40.301Z,99284.31
2023-04-25T00:22:33.363Z,99282.77
2023-04-25T00:27:26.020Z,99295.46
2023-04-25T00:32:18.718Z,99299.11
2023-04-25T00:37:11.572Z,99293.92
2023-04-25T00:42:04.953Z,99288.42
2023-04-25T00:46:57.744Z,99283.43
2023-04-25T00:51:50.562Z,99275.33
2023-04-25T00:56:43.561Z,99274.11
2023-04-25T01:01:36.297Z,99278.79
2023-04-25T01:06:29.681Z,99275.17
2023-04-25T01:11:22.517Z,99276.73
2023-04-25T01:16:15.839Z,99282.96
2023-04-25T01:21:15.140Z,99283.45
2023-04-25T01:26:08.554Z,99271.83
2023-04-25T01:31:02.031Z,99267.85
2023-04-25T01:35:54.824Z,99266.48
2023-04-25T01:40:47.910Z,99254.56
2023-04-25T01:45:42.325Z,99261.50
2023-04-25T01:50:36.482Z,99263.42
2023-04-25T01:55:29.461Z,99259.98
2023-04-25T02:00:32.111Z,99255.69
2023-04-25T02:05:24.859Z,99249.65
2023-04-25T02:10:18.446Z,99249.13
2023-04-25T02:15:31.445Z,99245.67
2023-04-25T02:20:36.120Z,99246.70
2023-04-25T02:25:29.383Z,99245.84
2023-04-25T02:30:22.141Z,99244.63
2023-04-25T02:35:15.129Z,99242.36
2023-04-25T02:40:08.307Z,99246.50
2023-04-25T02:45:00.943Z,99254.28
2023-04-25T02:49:53.690Z,99253.61
2023-04-25T02:54:46.364Z,99249.80
2023-04-25T02:59:39.160Z,99245.30
2023-04-25T03:04:31.920Z,99241.14
2023-04-25T03:09:24.920Z,99242.17
2023-04-25T03:14:18.287Z,99240.11
2023-04-25T03:19:11.108Z,99241.85
2023-04-25T03:24:04.923Z,99241.52
2023-04-25T03:28:57.749Z,99245.48
2023-04-25T03:33:51.124Z,99248.79
2023-04-25T03:38:45.890Z,99248.61
2023-04-25T03:43:39.746Z,99246.02
2023-04-25T03:48:36.503Z,99258.98
2023-04-25T03:53:29.926Z,99266.73
2023-04-25T03:58:54.949Z,99266.34
2023-04-25T04:03:49.920Z,99259.54
2023-04-25T04:08:43.338Z,99254.98
2023-04-25T04:13:37.286Z,99264.08
2023-04-25T04:18:30.279Z,99268.55
2023-04-25T04:23:23.934Z,99270.07
2023-04-25T04:28:17.620Z,99276.37
2023-04-25T04:33:30.566Z,99278.84
2023-04-25T04:38:26.528Z,99279.23
2023-04-25T04:43:23.994Z,99284.48
2023-04-25T04:48:29.380Z,99284.30
2023-04-25T04:53:31.020Z,99288.82
2023-04-25T04:58:56.225Z,99291.48
2023-04-25T05:03:49.325Z,99285.86
2023-04-25T05:09:02.127Z,99283.17
2023-04-25T05:14:21.495Z,99279.63
2023-04-25T05:19:34.670Z,99280.83
2023-04-25T05:24:40.850Z,99284.23
2023-04-25T05:29:57.262Z,99288.52
2023-04-25T05:34:54.281Z,99287.33
2023-04-25T05:40:13.204Z,99286.98
2023-04-25T05:45:18.808Z,99291.69
2023-04-25T05:50:24.449Z,99290.48
2023-04-25T05:55:30.406Z,99293.05
2023-04-25T06:00:25.846Z,99288.65
2023-04-25T06:05:18.738Z,99286.27
2023-04-25T06:10:12.949Z,99291.35
2023-04-25T06:15:13.205Z,99295.11
2023-04-25T06:20:16.978Z,99303.17
2023-04-25T06:25:09.790Z,99312.34
2023-04-25T06:30:02.908Z,99321.02
2023-04-25T06:34:56.103Z,99334.51
2023-04-25T06:39:48.881Z,99331.53
2023-04-25T06:44:41.719Z,99327.48
2023-04-25T06:49:35.324Z,99328.50
2023-04-25T06:54:30.842Z,99328.22
2023-04-25T06:59:31.290Z,99333.14
2023-04-25T07:04:24.410Z,99334.26
2023-04-25T07:09:21.331Z,99326.97
2023-04-25T07:14:14.846Z,99325.98
2023-04-25T07:19:08.063Z,99325.98
2023-04-25T07:24:01.466Z,99328.08
2023-04-25T07:28:58.018Z,99331.52
2023-04-25T07:33:51.463Z,99329.02
2023-04-25T07:38:44.361Z,99329.80
2023-04-25T07:43:37.907Z,99339.10
2023-04-25T07:48:31.906Z,99345.33
2023-04-25T07:53:24.843Z,99353.98
2023-04-25T07:58:22.981Z,99352.51
2023-04-25T08:03:19.317Z,99350.68
2023-04-25T08:08:12.888Z,99350.10
2023-04-25T08:13:05.888Z,99358.50
2023-04-25T08:17:59.267Z,99354.19
2023-04-25T08:22:52.388Z,99352.54
2023-04-25T08:28:04.561Z,99355.16
2023-04-25T08:32:57.932Z,99359.04
2023-04-25T08:38:22.844Z,99356.64
2023-04-25T08:43:16.396Z,99360.55
2023-04-25T08:48:12.555Z,99369.90
2023-04-25T08:53:06.590Z,99380.09
2023-04-25T08:57:59.979Z,99385.70
2023-04-25T09:02:53.239Z,99391.33
2023-04-25T09:07:46.426Z,99398.48
2023-04-25T09:12:40.556Z,99404.65
2023-04-25T09:17:34.900Z,99417.38
2023-04-25T09:22:27.669Z,99427.30
2023-04-25T09:27:21.543Z,99432.85
2023-04-25T09:32:25.072Z,99433.91
2023-04-25T09:37:21.627Z,99436.45
2023-04-25T09:42:35.755Z,99439.08
2023-04-25T09:47:29.730Z,99432.45
2023-04-25T09:52:25.584Z,99424.17
2023-04-25T09:57:42.833Z,99424.97
2023-04-25T10:02:38.289Z,99435.70
2023-04-25T10:07:34.170Z,99449.69
2023-04-25T10:12:28.845Z,99450.39
2023-04-25T10:17:22.176Z,99451.28
2023-04-25T10:22:25.646Z,99452.98
2023-04-25T10:27:19.669Z,99457.11
2023-04-25T10:32:12.646Z,99455.05
2023-04-25T10:37:05.823Z,99452.11
2023-04-25T10:41:59.651Z,99449.05
2023-04-25T10:46:52.373Z,99449.21
2023-04-25T10:56:46.343Z,99446.73
2023-04-25T11:01:40.968Z,99445.83
2023-04-25T11:06:40.149Z,99446.93
2023-04-25T11:11:32.877Z,99456.07
2023-04-25T11:16:29.323Z,99456.77
2023-04-25T11:21:22.166Z,99456.16
2023-04-25T11:26:15.384Z,99456.97
2023-04-25T11:31:08.110Z,99455.28
2023-04-25T11:36:01.767Z,99453.91
2023-04-25T11:40:55.043Z,99459.85
2023-04-25T11:45:52.886Z,99457.80
2023-04-25T11:50:45.788Z,99457.65
2023-04-25T11:55:38.603Z,99463.30
2023-04-25T12:00:31.314Z,99460.10
2023-04-25T12:05:32.595Z,99456.96
2023-04-25T12:10:26.933Z,99456.59
2023-04-25T12:15:21.262Z,99461.25
2023-04-25T12:20:24.885Z,99459.27
2023-04-25T12:25:36.124Z,99451.39
2023-04-25T12:30:29.400Z,99447.52
2023-04-25T12:35:22.256Z,99446.29
2023-04-25T12:40:15.454Z,99445.07
2023-04-25T12:45:09.176Z,99440.34
2023-04-25T12:50:02.941Z,99442.40
2023-04-25T12:54:55.836Z,99433.81
2023-04-25T12:59:48.552Z,99428.96
2023-04-25T13:04:41.236Z,99426.37
2023-04-25T13:09:34.584Z,99428.71
2023-04-25T13:14:27.326Z,99421.01
2023-04-25T13:19:20.038Z,99418.60
2023-04-25T13:24:12.773Z,99419.18
2023-04-25T13:29:05.857Z,99418.71
2023-04-25T13:33:58.549Z,99417.10
2023-04-25T13:38:51.353Z,99416.80
2023-04-25T13:43:44.005Z,99419.48
2023-04-25T13:48:37.669Z,99419.35
2023-04-25T13:53:30.765Z,99421.78
2023-04-25T13:58:23.472Z,99418.66
2023-04-25T14:03:16.480Z,99424.38
2023-04-25T14:08:10.495Z,99424.76
2023-04-25T14:13:04.886Z,99418.16
2023-04-25T14:17:57.772Z,99422.98
2023-04-25T14:22:50.865Z,99430.65
2023-04-25T14:27:48.719Z,99427.58
2023-04-25T14:32:41.575Z,99423.83
2023-04-25T14:37:34.835Z,99429.75
2023-04-25T14:42:27.667Z,99428.77
2023-04-25T14:47:20.801Z,99433.17
2023-04-25T14:52:13.552Z,99439.48
2023-04-25T14:57:06.276Z,99441.27
2023-04-25T15:01:59.847Z,99441.48
2023-04-25T15:06:53.142Z,99440.66
2023-04-25T15:11:46.279Z,99439.30
2023-04-25T15:16:39.119Z,99436.51
2023-04-25T15:21:32.921Z,99438.72
2023-04-25T15:26:26.124Z,99441.50
2023-04-25T15:31:19.071Z,99445.17
2023-04-25T15:36:12.363Z,99445.55
2023-04-25T15:41:06.581Z,99453.08
2023-04-25T15:45:59.647Z,99455.74
2023-04-25T15:50:52.502Z,99450.41
2023-04-25T15:55:45.851Z,99450.80
2023-04-25T16:00:39.995Z,99455.49
2023-04-25T16:05:33.490Z,99457.27
2023-04-25T16:10:26.716Z,99454.70
2023-04-25T16:15:19.792Z,99457.32
2023-04-25T16:20:13.603Z,99461.81
2023-04-25T16:25:07.276Z,99464.09
2023-04-25T16:30:00.035Z,99464.09
2023-04-25T16:34:52.798Z,99465.13
2023-04-25T16:39:46.030Z,99462.17
2023-04-25T16:44:38.810Z,99464.80
2023-04-25T16:49:31.809Z,99469.14
2023-04-25T16:54:25.621Z,99473.47
2023-04-25T16:59:18.344Z,99476.94
2023-04-25T17:04:11.355Z,99479.00
2023-04-25T17:09:04.373Z,99484.35
2023-04-25T17:13:57.194Z,99500.91
2023-04-25T17:18:51.447Z,99503.50
2023-04-25T17:23:46.106Z,99504.70
2023-04-25T17:28:38.924Z,99509.86
2023-04-25T17:33:31.598Z,99511.05
2023-04-25T17:38:24.304Z,99517.27
2023-04-25T17:43:17.811Z,99525.20
2023-04-25T17:48:10.533Z,99526.90
2023-04-25T17:53:04.098Z,99529.46
2023-04-25T17:57:57.757Z,99530.46
2023-04-25T18:02:52.287Z,99536.83
2023-04-25T18:07:45.211Z,99543.41
2023-04-25T18:12:39.234Z,99548.23
2023-04-25T18:17:31.985Z,99562.04
2023-04-25T18:22:25.183Z,99571.17
2023-04-25T18:27:17.925Z,99577.70
2023-04-25T18:32:11.217Z,99580.47
2023-04-25T18:37:03.996Z,99588.04
2023-04-25T18:42:04.166Z,99599.92
2023-04-25T18:46:59.384Z,99608.36
2023-04-25T18:51:52.156Z,99606.62
2023-04-25T18:56:44.830Z,99609.38
2023-04-25T19:01:37.864Z,99607.97
2023-04-25T19:06:30.657Z,99614.52
2023-04-25T19:11:24.032Z,99615.39
2023-04-25T19:16:17.634Z,99617.27
2023-04-25T19:21:11.401Z,99620.37
2023-04-25T19:26:04.907Z,99623.13
2023-04-25T19:30:57.948Z,99624.65
2023-04-25T19:35:50.678Z,99627.38
2023-04-25T19:40:44.199Z,99631.68
2023-04-25T19:45:38.490Z,99630.48
2023-04-25T19:50:31.570Z,99637.39
2023-04-25T19:55:24.797Z,99636.88
2023-04-25T20:00:19.927Z,99641.34
2023-04-25T20:05:14.323Z,99641.83
2023-04-25T20:10:08.316Z,99639.57
2023-04-25T20:15:01.686Z,99641.30
2023-04-25T20:19:54.449Z,99634.38
2023-04-25T20:24:47.212Z,99630.58
2023-04-25T20:29:40.319Z,99637.13
2023-04-25T20:34:33.699Z,99638.48
2023-04-25T20:39:27.049Z,99640.86
2023-04-25T20:44:22.830Z,99639.67
2023-04-25T20:49:15.594Z,99639.51
2023-04-25T20:54:09.679Z,99640.55
2023-04-25T20:59:04.653Z,99641.40
2023-04-25T21:03:57.856Z,99641.91
2023-04-25T21:08:51.356Z,99639.01
2023-04-25T21:13:44.709Z,99637.10
2023-04-25T21:18:37.509Z,99638.64
2023-04-25T21:23:30.285Z,99634.49
2023-04-25T21:28:23.872Z,99637.42
2023-04-25T21:33:17.194Z,99637.94
2023-04-25T21:38:10.294Z,99637.59
2023-04-25T21:43:03.383Z,99637.92
2023-04-25T21:47:56.424Z,99637.23
2023-04-25T21:52:49.369Z,99631.02
2023-04-25T21:57:42.721Z,99635.83
2023-04-25T22:02:36.856Z,99636.86
2023-04-25T22:07:30.037Z,99638.05
2023-04-25T22:12:23.029Z,99644.43
2023-04-25T22:17:16.124Z,99638.16
2023-04-25T22:22:09.087Z,99639.19
2023-04-25T22:27:03.417Z,99641.09
2023-04-25T22:31:56.290Z,99641.45
2023-04-25T22:36:49.527Z,99643.87
2023-04-25T22:41:42.786Z,99639.90
2023-04-25T22:46:35.560Z,99640.61
2023-04-25T22:51:29.199Z,99645.60
2023-04-25T22:56:22.064Z,99647.33
2023-04-25T23:01:15.787Z,99654.36
2023-04-25T23:06:11.897Z,99660.88
2023-04-25T23:11:08.212Z,99668.55
2023-04-25T23:16:05.895Z,99677.57
2023-04-25T23:20:59.339Z,99673.66
2023-04-25T23:25:52.550Z,99676.33
2023-04-25T23:30:45.277Z,99681.09
2023-04-25T23:35:38.345Z,99684.64
2023-04-25T23:40:32.135Z,99690.10
2023-04-25T23:45:24.887Z,99690.34
2023-04-25T23:50:17.599Z,99687.70
2023-04-25T23:55:21.883Z,99687.83
